Terminal Aerodrome Forecast
Issued by NWS Springfield, MO

Home | Current Version | Previous Version | Text Only | Print | Product List | Glossary On
Versions: 1 2 3 4 5 6 7 8 9 10 11 12 13 14 15 16
000
FTUS43 KSGF 231517 AAB
TAFSGF
TAF AMD
KSGF 231517Z 2315/2412 17011KT P6SM VCSH BKN025 OVC060
     FM231700 19012G19KT P6SM VCSH SCT025 BKN060
     FM240000 18010KT P6SM BKN050 PROB30 2400/2403 P6SM TSRA
      BKN040CB=

USA.gov is the U.S. government's official web portal to all federal, state and local government web resources and services.